createdAt,value
2018-05-04T00:00:46.006Z,7.40
2018-05-04T00:03:13.559Z,7.30
2018-05-04T00:05:41.169Z,7.30
2018-05-04T00:08:08.718Z,7.30
2018-05-04T00:10:36.291Z,7.30
2018-05-04T00:13:03.859Z,7.30
2018-05-04T00:15:31.420Z,7.30
2018-05-04T00:17:58.935Z,7.30
2018-05-04T00:20:26.518Z,7.20
2018-05-04T00:22:54.084Z,7.20
2018-05-04T00:25:21.656Z,7.20
2018-05-04T00:27:49.184Z,7.20
2018-05-04T00:30:16.709Z,7.10
2018-05-04T00:32:44.268Z,6.90
2018-05-04T00:35:11.821Z,6.90
2018-05-04T00:37:39.383Z,6.80
2018-05-04T00:40:06.927Z,6.70
2018-05-04T00:42:35.251Z,6.60
2018-05-04T00:45:02.787Z,6.60
2018-05-04T00:47:30.355Z,6.60
2018-05-04T00:49:57.927Z,6.70
2018-05-04T00:52:25.486Z,6.60
2018-05-04T00:54:53.031Z,6.60
2018-05-04T00:57:20.589Z,6.60
2018-05-04T00:59:53.254Z,6.60
2018-05-04T01:02:20.806Z,6.60
2018-05-04T01:04:49.103Z,6.50
2018-05-04T01:07:16.691Z,6.50
2018-05-04T01:09:44.233Z,6.50
2018-05-04T01:12:11.827Z,6.40
2018-05-04T01:14:39.369Z,6.40
2018-05-04T01:17:06.903Z,6.40
2018-05-04T01:19:34.476Z,6.40
2018-05-04T01:22:02.038Z,6.40
2018-05-04T01:24:29.599Z,6.40
2018-05-04T01:26:57.143Z,6.40
2018-05-04T01:29:24.712Z,6.30
2018-05-04T01:31:52.241Z,6.40
2018-05-04T01:34:20.555Z,6.30
2018-05-04T01:36:48.107Z,6.30
2018-05-04T01:39:15.659Z,6.20
2018-05-04T01:41:43.228Z,6.20
2018-05-04T01:44:11.553Z,6.20
2018-05-04T01:46:39.087Z,6.20
2018-05-04T01:49:06.649Z,6.20
2018-05-04T01:51:34.181Z,6.10
2018-05-04T01:54:02.522Z,6.00
2018-05-04T01:56:30.063Z,6.00
2018-05-04T01:58:57.644Z,6.00
2018-05-04T02:01:25.198Z,6.00
2018-05-04T02:03:52.749Z,6.00
2018-05-04T02:06:20.319Z,6.00
2018-05-04T02:08:47.864Z,5.90
2018-05-04T02:11:15.426Z,5.90
2018-05-04T02:13:42.959Z,5.80
2018-05-04T02:16:10.533Z,5.90
2018-05-04T02:18:38.112Z,5.90
2018-05-04T02:21:05.692Z,5.90
2018-05-04T02:23:33.227Z,5.90
2018-05-04T02:26:00.777Z,5.80
2018-05-04T02:28:28.334Z,5.80
2018-05-04T02:30:55.874Z,5.80
2018-05-04T02:33:23.411Z,5.70
2018-05-04T02:35:50.969Z,5.70
2018-05-04T02:38:18.540Z,5.60
2018-05-04T02:40:46.080Z,5.60
2018-05-04T02:43:13.592Z,5.60
2018-05-04T02:45:41.170Z,5.60
2018-05-04T02:48:08.715Z,5.60
2018-05-04T02:50:36.243Z,5.60
2018-05-04T02:53:03.823Z,5.50
2018-05-04T02:55:31.370Z,5.50
2018-05-04T02:57:58.935Z,5.50
2018-05-04T03:00:26.480Z,5.50
2018-05-04T03:02:54.053Z,5.60
2018-05-04T03:05:21.578Z,5.60
2018-05-04T03:07:49.899Z,5.40
2018-05-04T03:10:17.435Z,5.40
2018-05-04T03:12:45.768Z,5.40
2018-05-04T03:15:13.315Z,5.40
2018-05-04T03:17:40.869Z,5.40
2018-05-04T03:20:08.417Z,5.40
2018-05-04T03:22:35.974Z,5.40
2018-05-04T03:25:03.506Z,5.40
2018-05-04T03:27:31.836Z,5.50
2018-05-04T03:29:59.363Z,5.50
2018-05-04T03:32:26.923Z,5.50
2018-05-04T03:34:55.395Z,5.60
2018-05-04T03:37:22.938Z,5.60
2018-05-04T03:39:51.286Z,5.70
2018-05-04T03:42:18.831Z,5.70
2018-05-04T03:44:46.385Z,5.90
2018-05-04T03:47:13.946Z,5.90
2018-05-04T03:49:41.515Z,5.90
2018-05-04T03:52:14.858Z,6.00
2018-05-04T03:54:43.191Z,6.20
2018-05-04T03:57:22.581Z,6.10
2018-05-04T04:03:09.470Z,6.20
2018-05-04T04:05:37.012Z,6.30
2018-05-04T04:08:04.560Z,6.40
2018-05-04T04:10:32.116Z,6.50
2018-05-04T04:12:59.660Z,6.60
2018-05-04T04:15:28.001Z,6.80
2018-05-04T04:17:55.554Z,6.80
2018-05-04T04:20:23.120Z,7.00
2018-05-04T04:22:50.671Z,7.10
2018-05-04T04:25:18.231Z,7.20
2018-05-04T04:27:45.795Z,7.40
2018-05-04T04:30:13.364Z,7.50
2018-05-04T04:32:40.933Z,7.60
2018-05-04T04:35:08.477Z,8.00
2018-05-04T04:37:36.032Z,9.20
2018-05-04T04:40:03.576Z,11.20
2018-05-04T04:42:31.140Z,12.80
2018-05-04T04:44:58.707Z,13.80
2018-05-04T04:47:26.291Z,14.10
2018-05-04T04:49:53.836Z,14.60
2018-05-04T04:52:21.412Z,15.00
2018-05-04T04:54:48.945Z,15.10
2018-05-04T04:57:16.510Z,15.50
2018-05-04T04:59:44.054Z,15.90
2018-05-04T05:02:11.629Z,16.10
2018-05-04T05:04:39.198Z,16.40
2018-05-04T05:07:06.789Z,16.70
2018-05-04T05:09:34.351Z,16.80
2018-05-04T05:12:01.952Z,17.00
2018-05-04T05:14:29.520Z,17.40
2018-05-04T05:16:57.123Z,17.40
2018-05-04T05:19:24.681Z,17.60
2018-05-04T05:21:52.330Z,17.90
2018-05-04T05:24:20.689Z,18.30
2018-05-04T05:26:48.237Z,18.30
2018-05-04T05:29:15.904Z,18.40
2018-05-04T05:31:43.482Z,18.60
2018-05-04T05:34:11.031Z,18.50
2018-05-04T05:36:38.590Z,18.70
2018-05-04T05:39:06.170Z,18.90
2018-05-04T05:41:33.777Z,18.90
2018-05-04T05:44:01.366Z,19.10
2018-05-04T05:46:28.924Z,19.40
2018-05-04T05:48:56.490Z,19.80
2018-05-04T05:51:24.071Z,19.50
2018-05-04T05:53:51.622Z,19.00
2018-05-04T05:56:19.194Z,19.10
2018-05-04T05:58:46.733Z,19.60
2018-05-04T06:01:14.297Z,20.20
2018-05-04T06:03:41.834Z,20.40
2018-05-04T06:06:09.396Z,20.20
2018-05-04T06:08:36.946Z,20.00
2018-05-04T06:11:04.512Z,20.40
2018-05-04T06:13:32.058Z,19.70
2018-05-04T06:16:00.383Z,20.90
2018-05-04T06:18:27.950Z,20.80
2018-05-04T06:20:56.265Z,20.80
2018-05-04T06:23:23.814Z,20.70
2018-05-04T06:25:51.412Z,20.70
2018-05-04T06:28:18.969Z,20.20
2018-05-04T06:30:46.550Z,20.90
2018-05-04T06:33:14.136Z,20.40
2018-05-04T06:35:42.478Z,20.60
2018-05-04T06:38:10.002Z,20.50
2018-05-04T06:40:38.295Z,20.70
2018-05-04T06:43:06.608Z,20.80
2018-05-04T06:45:34.141Z,20.80
2018-05-04T06:48:01.715Z,20.50
2018-05-04T06:50:29.255Z,20.20
2018-05-04T06:52:56.840Z,19.90
2018-05-04T06:55:24.406Z,19.70
2018-05-04T06:57:51.964Z,19.10
2018-05-04T07:00:19.487Z,18.80
2018-05-04T07:02:47.802Z,20.40
2018-05-04T07:05:15.362Z,20.40
2018-05-04T07:07:42.936Z,21.10
2018-05-04T07:10:11.250Z,21.40
2018-05-04T07:12:38.837Z,21.30
2018-05-04T07:15:06.395Z,21.70
2018-05-04T07:17:33.952Z,22.20
2018-05-04T07:20:01.489Z,21.40
2018-05-04T07:22:29.051Z,20.80
2018-05-04T07:24:56.579Z,21.60
2018-05-04T07:27:24.144Z,20.60
2018-05-04T07:29:51.684Z,20.00
2018-05-04T07:32:19.221Z,20.50
2018-05-04T07:34:46.769Z,20.50
2018-05-04T07:37:15.081Z,21.10
2018-05-04T07:39:42.641Z,21.10
2018-05-04T07:42:10.197Z,21.20
2018-05-04T07:44:37.767Z,21.20
2018-05-04T07:47:05.309Z,20.70
2018-05-04T07:49:32.868Z,20.20
2018-05-04T07:52:01.156Z,20.20
2018-05-04T07:54:28.720Z,20.00
2018-05-04T07:56:56.959Z,20.20
2018-05-04T07:59:25.399Z,21.00
2018-05-04T08:01:52.936Z,21.80
2018-05-04T08:04:20.500Z,22.10
2018-05-04T08:06:48.050Z,22.30
2018-05-04T08:09:15.581Z,21.80
2018-05-04T08:11:44.084Z,20.00
2018-05-04T08:14:11.615Z,20.00
2018-05-04T08:16:39.933Z,21.70
2018-05-04T08:19:07.461Z,21.60
2018-05-04T08:21:35.031Z,22.40
2018-05-04T08:24:02.587Z,22.20
2018-05-04T08:26:30.219Z,22.10
2018-05-04T08:28:57.705Z,22.40
2018-05-04T08:31:25.264Z,22.50
2018-05-04T08:33:52.813Z,22.60
2018-05-04T08:36:20.372Z,21.90
2018-05-04T08:38:47.910Z,21.30
2018-05-04T08:41:15.469Z,21.90
2018-05-04T08:43:43.027Z,21.00
2018-05-04T08:46:10.574Z,21.10
2018-05-04T08:48:38.117Z,21.20
2018-05-04T08:51:05.775Z,20.70
2018-05-04T08:53:33.305Z,20.60
2018-05-04T08:56:00.827Z,21.40
2018-05-04T08:58:28.380Z,22.50
2018-05-04T09:00:55.942Z,22.80
2018-05-04T09:03:24.172Z,22.30
2018-05-04T09:05:53.652Z,22.30
2018-05-04T09:08:21.224Z,23.10
2018-05-04T09:10:49.542Z,23.40
2018-05-04T09:13:17.105Z,23.40
2018-05-04T09:15:44.659Z,22.50
2018-05-04T09:18:12.216Z,21.00
2018-05-04T09:20:39.781Z,20.70
2018-05-04T09:23:07.334Z,21.20
2018-05-04T09:25:34.885Z,21.40
2018-05-04T09:28:02.461Z,21.80
2018-05-04T09:30:30.007Z,22.00
2018-05-04T09:32:58.433Z,22.60
2018-05-04T09:35:25.960Z,22.90
2018-05-04T09:37:53.498Z,22.80
2018-05-04T09:40:21.064Z,22.60
2018-05-04T09:42:48.612Z,22.90
2018-05-04T09:45:16.216Z,22.30
2018-05-04T09:47:43.760Z,22.10
2018-05-04T09:50:11.328Z,21.30
2018-05-04T09:52:38.883Z,21.60
2018-05-04T09:55:06.449Z,21.10
2018-05-04T09:57:33.988Z,20.80
2018-05-04T10:00:01.561Z,20.90
2018-05-04T10:02:29.089Z,21.10
2018-05-04T10:04:56.664Z,21.50
2018-05-04T10:07:24.776Z,20.60
2018-05-04T10:09:52.329Z,21.50
2018-05-04T10:12:19.889Z,22.30
2018-05-04T10:14:47.458Z,21.30
2018-05-04T10:17:15.023Z,21.40
2018-05-04T10:19:42.622Z,20.20
2018-05-04T10:22:10.178Z,19.90
2018-05-04T10:24:38.464Z,20.70
2018-05-04T10:27:06.023Z,20.70
2018-05-04T10:29:33.575Z,21.30
2018-05-04T10:32:01.906Z,22.50
2018-05-04T10:34:29.436Z,22.50
2018-05-04T10:36:57.013Z,22.50
2018-05-04T10:39:24.586Z,21.60
2018-05-04T10:41:52.150Z,20.00
2018-05-04T10:44:19.693Z,21.00
2018-05-04T10:46:47.275Z,21.40
2018-05-04T10:49:15.572Z,21.50
2018-05-04T10:51:43.129Z,21.50
2018-05-04T10:54:10.692Z,20.50
2018-05-04T10:56:38.270Z,19.70
2018-05-04T10:59:06.573Z,20.40
2018-05-04T11:01:34.158Z,20.40
2018-05-04T11:04:01.818Z,21.20
2018-05-04T11:06:29.393Z,21.00
2018-05-04T11:08:56.936Z,20.90
2018-05-04T11:11:24.468Z,20.00
2018-05-04T11:13:52.021Z,19.50
2018-05-04T11:16:20.333Z,20.90
2018-05-04T11:18:47.893Z,20.90
2018-05-04T11:21:15.458Z,21.40
2018-05-04T11:23:43.116Z,21.50
2018-05-04T11:26:10.644Z,21.10
2018-05-04T11:28:38.967Z,21.80
2018-05-04T11:31:06.565Z,21.80
2018-05-04T11:33:34.912Z,20.80
2018-05-04T11:36:02.458Z,20.80
2018-05-04T11:38:30.014Z,20.30
2018-05-04T11:40:57.551Z,20.10
2018-05-04T11:43:25.111Z,19.20
2018-05-04T11:45:52.652Z,19.10
2018-05-04T11:48:20.227Z,19.00
2018-05-04T11:50:48.452Z,19.80
2018-05-04T11:53:15.996Z,19.30
2018-05-04T11:55:43.565Z,19.20
2018-05-04T11:58:11.092Z,19.30
2018-05-04T12:00:38.718Z,19.20
2018-05-04T12:03:07.027Z,18.60
2018-05-04T12:05:34.591Z,18.60
2018-05-04T12:08:02.143Z,18.70
2018-05-04T12:10:29.705Z,18.60
2018-05-04T12:12:57.247Z,18.90
2018-05-04T12:15:25.871Z,19.30
2018-05-04T12:17:53.418Z,19.30
2018-05-04T12:20:20.969Z,18.90
2018-05-04T12:22:48.569Z,19.20
2018-05-04T12:25:16.092Z,18.80
2018-05-04T12:27:44.396Z,19.00
2018-05-04T12:30:11.972Z,19.00
2018-05-04T12:32:39.526Z,18.90
2018-05-04T12:35:07.140Z,18.60
2018-05-04T12:37:34.682Z,19.00
2018-05-04T12:40:02.228Z,19.20
2018-05-04T12:42:29.793Z,19.20
2018-05-04T12:44:57.330Z,18.90
2018-05-04T12:47:24.915Z,18.80
2018-05-04T12:49:52.457Z,18.90
2018-05-04T12:52:20.012Z,18.80
2018-05-04T12:54:47.590Z,19.00
2018-05-04T12:57:15.201Z,19.10
2018-05-04T12:59:42.728Z,18.60
2018-05-04T13:02:11.154Z,18.70
2018-05-04T13:04:38.692Z,18.70
2018-05-04T13:07:06.263Z,19.00
2018-05-04T13:09:33.824Z,19.20
2018-05-04T13:12:01.400Z,19.30
2018-05-04T13:14:28.942Z,19.50
2018-05-04T13:16:56.501Z,19.50
2018-05-04T13:19:24.060Z,19.10
2018-05-04T13:21:51.647Z,18.60
2018-05-04T13:24:19.212Z,19.20
2018-05-04T13:26:46.773Z,19.10
2018-05-04T13:29:14.342Z,18.70
2018-05-04T13:31:41.901Z,18.90
2018-05-04T13:34:09.492Z,18.90
2018-05-04T13:36:37.062Z,19.20
2018-05-04T13:39:05.348Z,19.60
2018-05-04T13:41:33.934Z,20.00
2018-05-04T13:44:01.523Z,20.20
2018-05-04T13:46:29.088Z,20.40
2018-05-04T13:48:56.647Z,20.00
2018-05-04T13:51:24.243Z,19.80
2018-05-04T13:53:52.158Z,19.80
2018-05-04T13:56:19.675Z,19.60
2018-05-04T13:58:47.273Z,19.30
2018-05-04T14:01:14.930Z,18.90
2018-05-04T14:03:42.413Z,18.80
2018-05-04T14:06:09.961Z,19.00
2018-05-04T14:08:37.535Z,19.20
2018-05-04T14:11:05.116Z,19.40
2018-05-04T14:13:32.645Z,19.40
2018-05-04T14:16:00.201Z,19.50
2018-05-04T14:18:27.733Z,19.10
2018-05-04T14:20:55.312Z,19.20
2018-05-04T14:23:22.867Z,19.60
2018-05-04T14:25:50.438Z,19.60
2018-05-04T14:28:17.981Z,19.40
2018-05-04T14:30:45.555Z,19.30
2018-05-04T14:33:13.127Z,19.20
2018-05-04T14:35:41.621Z,19.10
2018-05-04T14:38:09.183Z,18.70
2018-05-04T14:40:36.757Z,18.90
2018-05-04T14:43:04.301Z,19.20
2018-05-04T14:45:31.861Z,19.40
2018-05-04T14:47:59.404Z,18.90
2018-05-04T14:50:26.993Z,18.80
2018-05-04T14:52:54.593Z,18.60
2018-05-04T14:55:22.903Z,18.80
2018-05-04T14:57:50.488Z,18.80
2018-05-04T15:00:18.033Z,18.60
2018-05-04T15:02:45.612Z,18.70
2018-05-04T15:05:13.153Z,18.70
2018-05-04T15:07:41.641Z,18.70
2018-05-04T15:10:10.100Z,18.50
2018-05-04T15:12:37.659Z,18.30
2018-05-04T15:15:07.163Z,18.40
2018-05-04T15:17:34.729Z,18.50
2018-05-04T15:20:02.285Z,18.50
2018-05-04T15:22:29.842Z,18.70
2018-05-04T15:24:57.419Z,18.70
2018-05-04T15:27:24.996Z,18.90
2018-05-04T15:29:52.551Z,18.90
2018-05-04T15:32:20.132Z,18.60
2018-05-04T15:34:47.678Z,18.80
2018-05-04T15:37:16.261Z,18.90
2018-05-04T15:39:43.791Z,18.80
2018-05-04T15:42:11.353Z,18.60
2018-05-04T15:44:38.942Z,18.50
2018-05-04T15:47:06.471Z,18.30
2018-05-04T15:49:34.029Z,18.30
2018-05-04T15:52:06.816Z,18.00
2018-05-04T15:54:34.406Z,18.00
2018-05-04T15:57:01.953Z,18.00
2018-05-04T15:59:29.538Z,17.90
2018-05-04T16:01:57.077Z,17.70
2018-05-04T16:04:24.635Z,17.70
2018-05-04T16:06:52.188Z,17.70
2018-05-04T16:09:19.749Z,17.70
2018-05-04T16:11:47.294Z,17.60
2018-05-04T16:14:15.673Z,17.60
2018-05-04T16:16:43.213Z,17.60
2018-05-04T16:19:11.445Z,17.50
2018-05-04T16:22:37.064Z,17.50
2018-05-04T16:25:04.626Z,17.40
2018-05-04T16:27:32.179Z,17.50
2018-05-04T16:30:00.639Z,17.40
2018-05-04T16:32:28.182Z,17.40
2018-05-04T16:34:56.488Z,17.20
2018-05-04T16:37:24.048Z,17.30
2018-05-04T16:39:51.592Z,17.20
2018-05-04T16:42:19.161Z,17.10
2018-05-04T16:44:46.719Z,16.90
2018-05-04T16:47:20.045Z,16.90
2018-05-04T16:49:47.589Z,16.70
2018-05-04T16:52:15.265Z,16.70
2018-05-04T16:54:42.812Z,16.80
2018-05-04T16:57:10.395Z,16.80
2018-05-04T16:59:37.925Z,16.80
2018-05-04T17:02:05.492Z,16.60
2018-05-04T17:04:33.043Z,16.60
2018-05-04T17:07:00.600Z,16.60
2018-05-04T17:09:28.203Z,16.50
2018-05-04T17:11:55.749Z,16.50
2018-05-04T17:14:23.268Z,16.50
2018-05-04T17:16:51.606Z,16.40
2018-05-04T17:19:19.156Z,16.40
2018-05-04T17:21:46.692Z,16.30
2018-05-04T17:24:14.244Z,16.20
2018-05-04T17:26:41.772Z,16.20
2018-05-04T17:29:09.354Z,16.20
2018-05-04T17:31:36.899Z,16.10
2018-05-04T17:34:05.269Z,15.90
2018-05-04T17:36:32.795Z,15.90
2018-05-04T17:39:00.363Z,15.90
2018-05-04T17:41:27.894Z,15.80
2018-05-04T17:43:55.454Z,15.60
2018-05-04T17:46:23.012Z,15.60
2018-05-04T17:48:50.578Z,15.50
2018-05-04T17:51:18.116Z,15.40
2018-05-04T17:53:45.663Z,15.30
2018-05-04T17:56:13.208Z,15.20
2018-05-04T17:58:42.548Z,15.00
2018-05-04T18:01:10.086Z,15.00
2018-05-04T18:03:38.421Z,14.80
2018-05-04T18:06:05.963Z,14.80
2018-05-04T18:08:33.544Z,14.70
2018-05-04T18:11:01.070Z,14.70
2018-05-04T18:13:28.651Z,14.60
2018-05-04T18:15:56.201Z,14.40
2018-05-04T18:18:23.755Z,14.30
2018-05-04T18:20:51.317Z,14.20
2018-05-04T18:23:18.847Z,14.20
2018-05-04T18:25:47.168Z,14.00
2018-05-04T18:28:14.701Z,14.00
2018-05-04T18:30:42.254Z,14.00
2018-05-04T18:33:09.795Z,13.90
2018-05-04T18:35:38.116Z,13.70
2018-05-04T18:38:05.654Z,13.80
2018-05-04T18:40:33.223Z,13.70
2018-05-04T18:43:00.777Z,13.70
2018-05-04T18:45:28.337Z,13.60
2018-05-04T18:47:55.883Z,13.50
2018-05-04T18:50:24.218Z,13.40
2018-05-04T18:52:51.762Z,13.40
2018-05-04T18:55:19.329Z,13.30
2018-05-04T18:57:46.857Z,13.20
2018-05-04T19:00:14.435Z,13.00
2018-05-04T19:02:47.607Z,13.00
2018-05-04T19:05:15.180Z,12.90
2018-05-04T19:07:44.665Z,12.80
2018-05-04T19:10:13.131Z,12.70
2018-05-04T19:12:40.685Z,12.60
2018-05-04T19:15:08.232Z,12.60
2018-05-04T19:17:35.791Z,12.50
2018-05-04T19:20:03.329Z,12.40
2018-05-04T19:22:30.885Z,12.30
2018-05-04T19:24:59.192Z,12.20
2018-05-04T19:27:26.752Z,12.20
2018-05-04T19:29:54.287Z,12.10
2018-05-04T19:32:21.859Z,12.00
2018-05-04T19:34:49.449Z,11.90
2018-05-04T19:37:17.003Z,11.90
2018-05-04T19:39:44.563Z,11.80
2018-05-04T19:42:12.125Z,11.70
2018-05-04T19:44:39.671Z,11.60
2018-05-04T19:47:07.257Z,11.50
2018-05-04T19:49:35.609Z,11.40
2018-05-04T19:52:03.153Z,11.40
2018-05-04T19:54:32.626Z,11.40
2018-05-04T19:57:00.171Z,11.30
2018-05-04T19:59:27.736Z,11.20
2018-05-04T20:01:57.011Z,11.00
2018-05-04T20:04:25.351Z,10.90
2018-05-04T20:06:52.872Z,10.90
2018-05-04T20:09:26.794Z,10.80
2018-05-04T20:11:55.243Z,10.80
2018-05-04T20:14:23.624Z,10.60
2018-05-04T20:16:54.248Z,10.60
2018-05-04T20:19:23.784Z,10.70
2018-05-04T20:21:51.334Z,10.70
2018-05-04T20:24:23.435Z,10.70
2018-05-04T20:26:50.969Z,10.60
2018-05-04T20:29:18.553Z,10.60
2018-05-04T20:31:46.102Z,10.60
2018-05-04T20:34:13.643Z,10.50
2018-05-04T20:36:41.236Z,10.50
2018-05-04T20:39:12.656Z,10.50
2018-05-04T20:41:40.220Z,10.50
2018-05-04T20:44:07.812Z,10.50
2018-05-04T20:46:35.360Z,10.50
2018-05-04T20:49:02.926Z,10.40
2018-05-04T20:51:30.482Z,10.30
2018-05-04T20:53:58.034Z,10.30
2018-05-04T20:56:25.612Z,10.20
2018-05-04T20:58:53.187Z,10.20
2018-05-04T21:01:20.713Z,10.20
2018-05-04T21:03:48.270Z,10.20
2018-05-04T21:06:15.923Z,10.10
2018-05-04T21:08:43.509Z,10.00
2018-05-04T21:11:11.053Z,9.90
2018-05-04T21:13:38.621Z,9.80
2018-05-04T21:16:06.171Z,9.70
2018-05-04T21:18:33.727Z,9.70
2018-05-04T21:21:01.260Z,9.70
2018-05-04T21:23:29.627Z,9.60
2018-05-04T21:25:57.165Z,9.60
2018-05-04T21:28:24.718Z,9.50
2018-05-04T21:30:52.269Z,9.50
2018-05-04T21:33:19.810Z,9.40
2018-05-04T21:35:47.347Z,9.30
2018-05-04T21:38:15.669Z,9.20
2018-05-04T21:40:43.199Z,9.10
2018-05-04T21:43:11.539Z,9.00
2018-05-04T21:45:39.081Z,9.00
2018-05-04T21:48:06.652Z,9.00
2018-05-04T21:50:34.213Z,8.90
2018-05-04T21:53:01.740Z,8.90
2018-05-04T21:55:29.288Z,8.90
2018-05-04T21:57:56.856Z,8.80
2018-05-04T22:00:24.409Z,8.80
2018-05-04T22:02:51.945Z,8.70
2018-05-04T22:05:20.259Z,8.80
2018-05-04T22:07:47.796Z,8.70
2018-05-04T22:10:16.141Z,8.70
2018-05-04T22:12:43.671Z,8.60
2018-05-04T22:15:11.235Z,8.60
2018-05-04T22:17:38.794Z,8.60
2018-05-04T22:20:06.362Z,8.60
2018-05-04T22:22:33.930Z,8.60
2018-05-04T22:25:01.484Z,8.60
2018-05-04T22:27:29.018Z,8.60
2018-05-04T22:29:56.644Z,8.60
2018-05-04T22:32:24.958Z,8.50
2018-05-04T22:34:52.484Z,8.40
2018-05-04T22:37:21.840Z,8.50
2018-05-04T22:39:49.381Z,8.40
2018-05-04T22:42:16.923Z,8.50
2018-05-04T22:44:44.488Z,8.50
2018-05-04T22:47:12.061Z,8.50
2018-05-04T22:49:39.581Z,8.50
2018-05-04T22:52:07.885Z,8.30
2018-05-04T22:54:35.425Z,8.40
2018-05-04T22:57:02.985Z,8.30
2018-05-04T22:59:31.283Z,8.20
2018-05-04T23:01:58.827Z,8.20
2018-05-04T23:04:27.117Z,8.20
2018-05-04T23:06:54.693Z,8.10
2018-05-04T23:09:22.231Z,8.10
2018-05-04T23:11:49.794Z,8.10
2018-05-04T23:14:17.335Z,8.00
2018-05-04T23:16:45.654Z,7.90
2018-05-04T23:19:13.189Z,7.90
2018-05-04T23:21:40.755Z,7.90
2018-05-04T23:24:08.291Z,7.80
2018-05-04T23:26:35.812Z,7.70
2018-05-04T23:29:03.356Z,7.70
2018-05-04T23:31:30.891Z,7.60
2018-05-04T23:33:58.453Z,7.50
2018-05-04T23:36:27.927Z,7.60
2018-05-04T23:38:55.465Z,7.50
2018-05-04T23:41:22.996Z,7.50
2018-05-04T23:43:50.572Z,7.50
2018-05-04T23:46:18.131Z,7.40
2018-05-04T23:48:45.677Z,7.40
2018-05-04T23:51:13.207Z,7.30
2018-05-04T23:53:41.551Z,7.30
2018-05-04T23:56:09.096Z,7.30
2018-05-04T23:58:36.644Z,7.30
